sensor_id;sensor_type;location;lat;lon;timestamp;P1;durP1;ratioP1;P2;durP2;ratioP2
27706;SDS011;36332;51.384;0.040;2023-08-17T00:00:27;30.65;;;17.50;;
27706;SDS011;36332;51.384;0.040;2023-08-17T00:02:55;29.85;;;17.95;;
27706;SDS011;36332;51.384;0.040;2023-08-17T00:05:23;31.35;;;19.65;;
27706;SDS011;36332;51.384;0.040;2023-08-17T00:07:51;38.45;;;20.00;;
27706;SDS011;36332;51.384;0.040;2023-08-17T00:10:19;33.55;;;19.17;;
27706;SDS011;36332;51.384;0.040;2023-08-17T00:12:47;31.55;;;19.55;;
27706;SDS011;36332;51.384;0.040;2023-08-17T00:15:15;27.70;;;17.77;;
27706;SDS011;36332;51.384;0.040;2023-08-17T00:17:43;28.13;;;17.15;;
27706;SDS011;36332;51.384;0.040;2023-08-17T00:20:11;32.40;;;19.98;;
27706;SDS011;36332;51.384;0.040;2023-08-17T00:22:39;36.10;;;20.45;;
27706;SDS011;36332;51.384;0.040;2023-08-17T00:25:07;34.95;;;19.73;;
27706;SDS011;36332;51.384;0.040;2023-08-17T00:27:35;29.15;;;18.75;;
27706;SDS011;36332;51.384;0.040;2023-08-17T00:30:03;44.15;;;21.90;;
27706;SDS011;36332;51.384;0.040;2023-08-17T00:32:31;37.28;;;19.35;;
27706;SDS011;36332;51.384;0.040;2023-08-17T00:34:59;27.58;;;18.15;;
27706;SDS011;36332;51.384;0.040;2023-08-17T00:37:28;31.65;;;18.25;;
27706;SDS011;36332;51.384;0.040;2023-08-17T00:39:56;22.63;;;15.90;;
27706;SDS011;36332;51.384;0.040;2023-08-17T00:42:24;27.73;;;18.40;;
27706;SDS011;36332;51.384;0.040;2023-08-17T00:44:52;28.67;;;17.67;;
27706;SDS011;36332;51.384;0.040;2023-08-17T00:47:19;36.35;;;19.38;;
27706;SDS011;36332;51.384;0.040;2023-08-17T00:49:47;26.65;;;16.55;;
27706;SDS011;36332;51.384;0.040;2023-08-17T00:52:16;34.00;;;17.92;;
27706;SDS011;36332;51.384;0.040;2023-08-17T00:54:43;29.80;;;17.17;;
27706;SDS011;36332;51.384;0.040;2023-08-17T00:57:11;39.15;;;18.65;;
27706;SDS011;36332;51.384;0.040;2023-08-17T00:59:39;25.90;;;18.38;;
27706;SDS011;36332;51.384;0.040;2023-08-17T01:02:09;26.30;;;16.98;;
27706;SDS011;36332;51.384;0.040;2023-08-17T01:04:37;28.50;;;17.27;;
27706;SDS011;36332;51.384;0.040;2023-08-17T01:07:05;29.23;;;18.52;;
27706;SDS011;36332;51.384;0.040;2023-08-17T01:09:34;27.92;;;17.63;;
27706;SDS011;36332;51.384;0.040;2023-08-17T01:12:05;32.47;;;17.50;;
27706;SDS011;36332;51.384;0.040;2023-08-17T01:17:52;24.73;;;16.95;;
27706;SDS011;36332;51.384;0.040;2023-08-17T01:20:25;29.33;;;18.10;;
27706;SDS011;36332;51.384;0.040;2023-08-17T01:22:55;33.80;;;17.95;;
27706;SDS011;36332;51.384;0.040;2023-08-17T01:25:26;45.78;;;18.60;;
27706;SDS011;36332;51.384;0.040;2023-08-17T01:27:54;31.23;;;17.00;;
27706;SDS011;36332;51.384;0.040;2023-08-17T01:30:21;26.42;;;16.52;;
27706;SDS011;36332;51.384;0.040;2023-08-17T01:38:15;32.53;;;16.87;;
27706;SDS011;36332;51.384;0.040;2023-08-17T01:40:46;25.15;;;17.67;;
27706;SDS011;36332;51.384;0.040;2023-08-17T01:43:15;32.95;;;16.95;;
27706;SDS011;36332;51.384;0.040;2023-08-17T01:45:43;28.35;;;16.83;;
27706;SDS011;36332;51.384;0.040;2023-08-17T01:48:11;29.23;;;17.55;;
27706;SDS011;36332;51.384;0.040;2023-08-17T01:50:40;34.28;;;17.98;;
27706;SDS011;36332;51.384;0.040;2023-08-17T01:53:07;32.95;;;17.75;;
27706;SDS011;36332;51.384;0.040;2023-08-17T01:55:36;31.50;;;17.15;;
27706;SDS011;36332;51.384;0.040;2023-08-17T01:58:06;27.88;;;16.75;;
27706;SDS011;36332;51.384;0.040;2023-08-17T02:00:34;26.08;;;16.55;;
27706;SDS011;36332;51.384;0.040;2023-08-17T02:03:02;29.02;;;15.88;;
27706;SDS011;36332;51.384;0.040;2023-08-17T02:05:29;31.85;;;16.92;;
27706;SDS011;36332;51.384;0.040;2023-08-17T02:07:57;26.67;;;16.15;;
27706;SDS011;36332;51.384;0.040;2023-08-17T02:10:27;25.48;;;16.38;;
27706;SDS011;36332;51.384;0.040;2023-08-17T02:12:55;24.45;;;16.20;;
27706;SDS011;36332;51.384;0.040;2023-08-17T02:15:38;33.85;;;16.25;;
27706;SDS011;36332;51.384;0.040;2023-08-17T02:18:06;32.25;;;16.52;;
27706;SDS011;36332;51.384;0.040;2023-08-17T02:20:34;30.27;;;15.82;;
27706;SDS011;36332;51.384;0.040;2023-08-17T02:23:03;28.10;;;15.75;;
27706;SDS011;36332;51.384;0.040;2023-08-17T02:25:31;29.25;;;16.15;;
27706;SDS011;36332;51.384;0.040;2023-08-17T02:28:02;26.33;;;16.17;;
27706;SDS011;36332;51.384;0.040;2023-08-17T02:30:30;33.08;;;15.90;;
27706;SDS011;36332;51.384;0.040;2023-08-17T02:32:58;23.55;;;14.63;;
27706;SDS011;36332;51.384;0.040;2023-08-17T02:35:26;26.55;;;14.57;;
27706;SDS011;36332;51.384;0.040;2023-08-17T02:37:54;32.75;;;14.65;;
27706;SDS011;36332;51.384;0.040;2023-08-17T02:40:22;27.95;;;14.20;;
27706;SDS011;36332;51.384;0.040;2023-08-17T02:42:50;21.63;;;14.10;;
27706;SDS011;36332;51.384;0.040;2023-08-17T02:45:17;26.15;;;13.93;;
27706;SDS011;36332;51.384;0.040;2023-08-17T02:47:45;26.63;;;12.93;;
27706;SDS011;36332;51.384;0.040;2023-08-17T02:50:14;36.28;;;14.02;;
27706;SDS011;36332;51.384;0.040;2023-08-17T02:52:42;23.13;;;13.00;;
27706;SDS011;36332;51.384;0.040;2023-08-17T02:55:10;29.83;;;13.88;;
27706;SDS011;36332;51.384;0.040;2023-08-17T02:57:38;26.58;;;13.18;;
27706;SDS011;36332;51.384;0.040;2023-08-17T03:00:06;22.23;;;11.32;;
27706;SDS011;36332;51.384;0.040;2023-08-17T03:02:34;23.73;;;11.80;;
27706;SDS011;36332;51.384;0.040;2023-08-17T03:05:02;26.55;;;12.82;;
27706;SDS011;36332;51.384;0.040;2023-08-17T03:07:30;33.50;;;12.68;;
27706;SDS011;36332;51.384;0.040;2023-08-17T03:09:58;19.27;;;11.65;;
27706;SDS011;36332;51.384;0.040;2023-08-17T03:12:25;26.58;;;11.68;;
27706;SDS011;36332;51.384;0.040;2023-08-17T03:14:53;25.38;;;11.30;;
27706;SDS011;36332;51.384;0.040;2023-08-17T03:17:21;26.17;;;12.73;;
27706;SDS011;36332;51.384;0.040;2023-08-17T03:19:49;25.75;;;10.88;;
27706;SDS011;36332;51.384;0.040;2023-08-17T03:22:17;22.30;;;10.63;;
27706;SDS011;36332;51.384;0.040;2023-08-17T03:24:45;18.80;;;9.95;;
27706;SDS011;36332;51.384;0.040;2023-08-17T03:27:13;24.25;;;9.52;;
27706;SDS011;36332;51.384;0.040;2023-08-17T03:29:41;23.83;;;10.82;;
27706;SDS011;36332;51.384;0.040;2023-08-17T03:32:09;29.33;;;9.85;;
27706;SDS011;36332;51.384;0.040;2023-08-17T03:34:37;22.23;;;9.85;;
27706;SDS011;36332;51.384;0.040;2023-08-17T03:37:06;25.13;;;10.48;;
27706;SDS011;36332;51.384;0.040;2023-08-17T03:39:34;25.58;;;8.90;;
27706;SDS011;36332;51.384;0.040;2023-08-17T03:42:02;27.67;;;9.60;;
27706;SDS011;36332;51.384;0.040;2023-08-17T03:44:30;29.05;;;9.55;;
27706;SDS011;36332;51.384;0.040;2023-08-17T03:46:58;23.05;;;9.50;;
27706;SDS011;36332;51.384;0.040;2023-08-17T03:49:26;24.05;;;10.55;;
27706;SDS011;36332;51.384;0.040;2023-08-17T03:51:55;25.38;;;9.25;;
27706;SDS011;36332;51.384;0.040;2023-08-17T03:54:23;24.23;;;9.32;;
27706;SDS011;36332;51.384;0.040;2023-08-17T03:56:51;28.02;;;8.48;;
27706;SDS011;36332;51.384;0.040;2023-08-17T03:59:19;24.63;;;9.30;;
27706;SDS011;36332;51.384;0.040;2023-08-17T04:01:47;26.35;;;9.23;;
27706;SDS011;36332;51.384;0.040;2023-08-17T04:04:17;24.05;;;10.02;;
27706;SDS011;36332;51.384;0.040;2023-08-17T04:06:45;33.92;;;10.13;;
27706;SDS011;36332;51.384;0.040;2023-08-17T04:09:13;27.15;;;9.73;;
27706;SDS011;36332;51.384;0.040;2023-08-17T04:11:40;23.92;;;8.95;;
27706;SDS011;36332;51.384;0.040;2023-08-17T04:14:08;26.02;;;9.93;;
27706;SDS011;36332;51.384;0.040;2023-08-17T04:16:36;25.00;;;8.70;;
27706;SDS011;36332;51.384;0.040;2023-08-17T04:19:04;24.88;;;8.30;;
27706;SDS011;36332;51.384;0.040;2023-08-17T04:21:32;25.88;;;8.77;;
27706;SDS011;36332;51.384;0.040;2023-08-17T04:23:59;28.65;;;8.20;;
27706;SDS011;36332;51.384;0.040;2023-08-17T04:26:29;16.55;;;7.40;;
27706;SDS011;36332;51.384;0.040;2023-08-17T04:28:57;30.92;;;8.82;;
27706;SDS011;36332;51.384;0.040;2023-08-17T04:31:25;20.85;;;7.97;;
27706;SDS011;36332;51.384;0.040;2023-08-17T04:33:58;24.35;;;8.32;;
27706;SDS011;36332;51.384;0.040;2023-08-17T04:36:27;23.75;;;8.35;;
27706;SDS011;36332;51.384;0.040;2023-08-17T04:38:55;22.25;;;8.77;;
27706;SDS011;36332;51.384;0.040;2023-08-17T04:41:24;24.02;;;7.57;;
27706;SDS011;36332;51.384;0.040;2023-08-17T04:43:53;21.23;;;8.60;;
27706;SDS011;36332;51.384;0.040;2023-08-17T04:46:21;26.75;;;9.23;;
27706;SDS011;36332;51.384;0.040;2023-08-17T04:48:49;25.92;;;8.13;;
27706;SDS011;36332;51.384;0.040;2023-08-17T04:51:17;19.70;;;7.80;;
27706;SDS011;36332;51.384;0.040;2023-08-17T04:53:45;29.27;;;8.48;;
27706;SDS011;36332;51.384;0.040;2023-08-17T04:56:13;23.05;;;7.72;;
27706;SDS011;36332;51.384;0.040;2023-08-17T04:58:41;27.33;;;7.18;;
27706;SDS011;36332;51.384;0.040;2023-08-17T05:01:11;28.33;;;8.32;;
27706;SDS011;36332;51.384;0.040;2023-08-17T05:03:39;25.77;;;7.88;;
27706;SDS011;36332;51.384;0.040;2023-08-17T05:06:07;25.23;;;7.80;;
27706;SDS011;36332;51.384;0.040;2023-08-17T05:08:36;28.00;;;8.05;;
27706;SDS011;36332;51.384;0.040;2023-08-17T05:11:04;21.23;;;7.88;;
27706;SDS011;36332;51.384;0.040;2023-08-17T05:13:32;23.98;;;7.88;;
27706;SDS011;36332;51.384;0.040;2023-08-17T05:16:03;23.60;;;7.95;;
27706;SDS011;36332;51.384;0.040;2023-08-17T05:18:31;32.10;;;7.93;;
27706;SDS011;36332;51.384;0.040;2023-08-17T05:20:59;27.60;;;7.57;;
27706;SDS011;36332;51.384;0.040;2023-08-17T05:23:30;26.80;;;8.50;;
27706;SDS011;36332;51.384;0.040;2023-08-17T05:25:59;24.55;;;7.90;;
27706;SDS011;36332;51.384;0.040;2023-08-17T05:28:28;20.48;;;8.65;;
27706;SDS011;36332;51.384;0.040;2023-08-17T05:30:56;24.33;;;8.27;;
27706;SDS011;36332;51.384;0.040;2023-08-17T05:33:32;27.58;;;9.73;;
27706;SDS011;36332;51.384;0.040;2023-08-17T05:36:00;24.02;;;7.93;;
27706;SDS011;36332;51.384;0.040;2023-08-17T05:38:28;19.38;;;7.50;;
27706;SDS011;36332;51.384;0.040;2023-08-17T05:40:56;24.17;;;7.00;;
27706;SDS011;36332;51.384;0.040;2023-08-17T05:43:24;25.50;;;8.10;;
27706;SDS011;36332;51.384;0.040;2023-08-17T05:45:52;21.17;;;6.18;;
27706;SDS011;36332;51.384;0.040;2023-08-17T05:48:21;21.70;;;6.97;;
27706;SDS011;36332;51.384;0.040;2023-08-17T05:50:49;28.30;;;7.13;;
27706;SDS011;36332;51.384;0.040;2023-08-17T05:53:17;27.58;;;7.28;;
27706;SDS011;36332;51.384;0.040;2023-08-17T05:55:45;32.90;;;7.50;;
27706;SDS011;36332;51.384;0.040;2023-08-17T05:58:12;23.88;;;7.00;;
27706;SDS011;36332;51.384;0.040;2023-08-17T06:00:40;25.83;;;7.13;;
27706;SDS011;36332;51.384;0.040;2023-08-17T06:03:08;29.05;;;7.30;;
27706;SDS011;36332;51.384;0.040;2023-08-17T06:05:36;25.08;;;7.18;;
27706;SDS011;36332;51.384;0.040;2023-08-17T06:08:04;22.85;;;6.85;;
27706;SDS011;36332;51.384;0.040;2023-08-17T06:10:32;23.25;;;7.72;;
27706;SDS011;36332;51.384;0.040;2023-08-17T06:13:00;23.40;;;8.32;;
27706;SDS011;36332;51.384;0.040;2023-08-17T06:15:28;20.75;;;6.43;;
27706;SDS011;36332;51.384;0.040;2023-08-17T06:17:56;25.05;;;7.82;;
27706;SDS011;36332;51.384;0.040;2023-08-17T06:20:24;22.80;;;7.88;;
27706;SDS011;36332;51.384;0.040;2023-08-17T06:22:51;26.95;;;7.47;;
27706;SDS011;36332;51.384;0.040;2023-08-17T06:25:19;21.92;;;6.13;;
27706;SDS011;36332;51.384;0.040;2023-08-17T06:27:48;30.25;;;6.82;;
27706;SDS011;36332;51.384;0.040;2023-08-17T06:30:16;24.25;;;6.68;;
27706;SDS011;36332;51.384;0.040;2023-08-17T06:32:44;27.35;;;7.45;;
27706;SDS011;36332;51.384;0.040;2023-08-17T06:35:12;19.67;;;6.18;;
27706;SDS011;36332;51.384;0.040;2023-08-17T06:37:40;20.05;;;6.07;;
27706;SDS011;36332;51.384;0.040;2023-08-17T06:40:08;23.67;;;5.60;;
27706;SDS011;36332;51.384;0.040;2023-08-17T06:42:38;31.75;;;6.70;;
27706;SDS011;36332;51.384;0.040;2023-08-17T06:45:06;24.05;;;5.57;;
27706;SDS011;36332;51.384;0.040;2023-08-17T06:47:34;18.83;;;5.60;;
27706;SDS011;36332;51.384;0.040;2023-08-17T06:50:02;16.13;;;4.90;;
27706;SDS011;36332;51.384;0.040;2023-08-17T06:52:31;21.45;;;6.25;;
27706;SDS011;36332;51.384;0.040;2023-08-17T06:55:01;17.88;;;5.68;;
27706;SDS011;36332;51.384;0.040;2023-08-17T06:57:29;22.88;;;6.15;;
27706;SDS011;36332;51.384;0.040;2023-08-17T06:59:57;28.25;;;6.63;;
27706;SDS011;36332;51.384;0.040;2023-08-17T07:02:26;13.98;;;5.25;;
27706;SDS011;36332;51.384;0.040;2023-08-17T07:05:05;14.60;;;5.10;;
27706;SDS011;36332;51.384;0.040;2023-08-17T07:07:33;16.80;;;5.20;;
27706;SDS011;36332;51.384;0.040;2023-08-17T07:10:01;22.38;;;5.22;;
27706;SDS011;36332;51.384;0.040;2023-08-17T07:12:29;29.10;;;6.72;;
27706;SDS011;36332;51.384;0.040;2023-08-17T07:14:57;18.38;;;5.53;;
27706;SDS011;36332;51.384;0.040;2023-08-17T07:17:25;26.02;;;5.90;;
27706;SDS011;36332;51.384;0.040;2023-08-17T07:19:54;18.13;;;5.38;;
27706;SDS011;36332;51.384;0.040;2023-08-17T07:22:41;17.52;;;5.82;;
27706;SDS011;36332;51.384;0.040;2023-08-17T07:25:09;16.52;;;5.72;;
27706;SDS011;36332;51.384;0.040;2023-08-17T07:27:36;15.50;;;5.20;;
27706;SDS011;36332;51.384;0.040;2023-08-17T07:30:04;22.48;;;6.50;;
27706;SDS011;36332;51.384;0.040;2023-08-17T07:32:33;15.90;;;5.15;;
27706;SDS011;36332;51.384;0.040;2023-08-17T07:35:01;23.30;;;4.63;;
27706;SDS011;36332;51.384;0.040;2023-08-17T07:37:29;14.27;;;4.35;;
27706;SDS011;36332;51.384;0.040;2023-08-17T07:40:01;15.82;;;4.88;;
27706;SDS011;36332;51.384;0.040;2023-08-17T07:42:32;18.27;;;4.57;;
27706;SDS011;36332;51.384;0.040;2023-08-17T07:44:59;14.30;;;5.10;;
27706;SDS011;36332;51.384;0.040;2023-08-17T07:47:28;22.95;;;5.22;;
27706;SDS011;36332;51.384;0.040;2023-08-17T07:49:56;14.30;;;4.65;;
27706;SDS011;36332;51.384;0.040;2023-08-17T07:52:24;17.08;;;4.70;;
27706;SDS011;36332;51.384;0.040;2023-08-17T07:54:53;16.83;;;3.80;;
27706;SDS011;36332;51.384;0.040;2023-08-17T07:57:21;20.38;;;4.15;;
27706;SDS011;36332;51.384;0.040;2023-08-17T07:59:48;14.57;;;4.97;;
27706;SDS011;36332;51.384;0.040;2023-08-17T08:02:17;15.57;;;4.20;;
27706;SDS011;36332;51.384;0.040;2023-08-17T08:04:45;10.90;;;3.85;;
27706;SDS011;36332;51.384;0.040;2023-08-17T08:07:13;14.88;;;3.92;;
27706;SDS011;36332;51.384;0.040;2023-08-17T08:09:41;15.48;;;4.18;;
27706;SDS011;36332;51.384;0.040;2023-08-17T08:12:09;9.63;;;3.67;;
27706;SDS011;36332;51.384;0.040;2023-08-17T08:14:36;21.42;;;3.80;;
27706;SDS011;36332;51.384;0.040;2023-08-17T08:17:04;14.57;;;4.30;;
27706;SDS011;36332;51.384;0.040;2023-08-17T08:19:33;13.60;;;3.67;;
27706;SDS011;36332;51.384;0.040;2023-08-17T08:22:02;14.95;;;4.45;;
27706;SDS011;36332;51.384;0.040;2023-08-17T08:24:30;18.50;;;3.67;;
27706;SDS011;36332;51.384;0.040;2023-08-17T08:27:05;11.85;;;4.00;;
27706;SDS011;36332;51.384;0.040;2023-08-17T08:29:33;13.88;;;3.45;;
27706;SDS011;36332;51.384;0.040;2023-08-17T08:32:00;17.52;;;3.58;;
27706;SDS011;36332;51.384;0.040;2023-08-17T08:34:31;13.07;;;3.40;;
27706;SDS011;36332;51.384;0.040;2023-08-17T08:36:59;7.20;;;2.95;;
27706;SDS011;36332;51.384;0.040;2023-08-17T08:39:26;16.48;;;3.13;;
27706;SDS011;36332;51.384;0.040;2023-08-17T08:41:54;13.70;;;3.60;;
27706;SDS011;36332;51.384;0.040;2023-08-17T08:44:22;16.67;;;3.65;;
27706;SDS011;36332;51.384;0.040;2023-08-17T08:46:50;15.75;;;3.90;;
27706;SDS011;36332;51.384;0.040;2023-08-17T08:49:21;14.60;;;3.22;;
27706;SDS011;36332;51.384;0.040;2023-08-17T08:51:51;12.60;;;3.22;;
27706;SDS011;36332;51.384;0.040;2023-08-17T08:54:20;15.18;;;3.38;;
27706;SDS011;36332;51.384;0.040;2023-08-17T08:57:08;12.40;;;2.35;;
27706;SDS011;36332;51.384;0.040;2023-08-17T08:59:41;24.88;;;4.15;;
27706;SDS011;36332;51.384;0.040;2023-08-17T09:02:13;18.42;;;3.80;;
27706;SDS011;36332;51.384;0.040;2023-08-17T09:04:45;15.38;;;3.17;;
27706;SDS011;36332;51.384;0.040;2023-08-17T09:07:14;13.07;;;3.15;;
27706;SDS011;36332;51.384;0.040;2023-08-17T09:09:44;14.63;;;3.72;;
27706;SDS011;36332;51.384;0.040;2023-08-17T09:12:13;18.40;;;3.85;;
27706;SDS011;36332;51.384;0.040;2023-08-17T09:14:52;16.98;;;3.40;;
27706;SDS011;36332;51.384;0.040;2023-08-17T09:17:23;15.80;;;3.80;;
27706;SDS011;36332;51.384;0.040;2023-08-17T09:19:52;14.35;;;3.38;;
27706;SDS011;36332;51.384;0.040;2023-08-17T09:22:24;24.60;;;4.00;;
27706;SDS011;36332;51.384;0.040;2023-08-17T09:24:54;10.07;;;2.55;;
27706;SDS011;36332;51.384;0.040;2023-08-17T09:27:22;21.75;;;3.63;;
27706;SDS011;36332;51.384;0.040;2023-08-17T09:29:50;22.95;;;3.92;;
27706;SDS011;36332;51.384;0.040;2023-08-17T09:32:20;18.38;;;3.92;;
27706;SDS011;36332;51.384;0.040;2023-08-17T09:34:48;16.40;;;4.10;;
27706;SDS011;36332;51.384;0.040;2023-08-17T09:37:16;15.18;;;3.25;;
27706;SDS011;36332;51.384;0.040;2023-08-17T09:39:44;11.13;;;2.72;;
27706;SDS011;36332;51.384;0.040;2023-08-17T09:42:11;14.27;;;3.15;;
27706;SDS011;36332;51.384;0.040;2023-08-17T09:44:39;15.63;;;3.70;;
27706;SDS011;36332;51.384;0.040;2023-08-17T09:47:07;12.38;;;2.63;;
27706;SDS011;36332;51.384;0.040;2023-08-17T09:49:35;15.38;;;4.03;;
27706;SDS011;36332;51.384;0.040;2023-08-17T09:52:02;13.48;;;3.25;;
27706;SDS011;36332;51.384;0.040;2023-08-17T09:54:31;17.15;;;3.95;;
27706;SDS011;36332;51.384;0.040;2023-08-17T09:56:58;12.07;;;2.92;;
27706;SDS011;36332;51.384;0.040;2023-08-17T09:59:27;13.07;;;3.33;;
27706;SDS011;36332;51.384;0.040;2023-08-17T10:01:55;16.63;;;2.67;;
27706;SDS011;36332;51.384;0.040;2023-08-17T10:04:25;14.90;;;2.63;;
27706;SDS011;36332;51.384;0.040;2023-08-17T10:06:58;10.90;;;3.33;;
27706;SDS011;36332;51.384;0.040;2023-08-17T10:09:28;9.95;;;3.25;;
27706;SDS011;36332;51.384;0.040;2023-08-17T10:12:05;11.43;;;2.53;;
27706;SDS011;36332;51.384;0.040;2023-08-17T10:14:39;8.93;;;3.25;;
27706;SDS011;36332;51.384;0.040;2023-08-17T10:17:15;11.35;;;2.40;;
27706;SDS011;36332;51.384;0.040;2023-08-17T10:19:54;13.70;;;2.92;;
27706;SDS011;36332;51.384;0.040;2023-08-17T10:22:39;13.35;;;3.17;;
27706;SDS011;36332;51.384;0.040;2023-08-17T10:25:12;14.57;;;2.40;;
27706;SDS011;36332;51.384;0.040;2023-08-17T10:27:41;15.85;;;2.88;;
27706;SDS011;36332;51.384;0.040;2023-08-17T10:30:09;11.10;;;2.50;;
27706;SDS011;36332;51.384;0.040;2023-08-17T10:32:38;17.10;;;3.72;;
27706;SDS011;36332;51.384;0.040;2023-08-17T10:35:13;18.43;;;4.57;;
27706;SDS011;36332;51.384;0.040;2023-08-17T10:37:41;14.60;;;3.50;;
27706;SDS011;36332;51.384;0.040;2023-08-17T10:40:10;10.35;;;2.70;;
27706;SDS011;36332;51.384;0.040;2023-08-17T10:42:41;10.40;;;2.38;;
27706;SDS011;36332;51.384;0.040;2023-08-17T10:50:35;10.80;;;2.33;;
27706;SDS011;36332;51.384;0.040;2023-08-17T10:53:10;10.00;;;2.63;;
27706;SDS011;36332;51.384;0.040;2023-08-17T10:55:40;15.40;;;2.28;;
27706;SDS011;36332;51.384;0.040;2023-08-17T10:58:11;11.30;;;2.95;;
27706;SDS011;36332;51.384;0.040;2023-08-17T11:00:42;10.05;;;2.08;;
27706;SDS011;36332;51.384;0.040;2023-08-17T11:03:19;8.80;;;2.20;;
27706;SDS011;36332;51.384;0.040;2023-08-17T11:05:48;10.52;;;2.50;;
27706;SDS011;36332;51.384;0.040;2023-08-17T11:08:20;9.77;;;2.50;;
27706;SDS011;36332;51.384;0.040;2023-08-17T11:11:11;9.80;;;2.00;;
27706;SDS011;36332;51.384;0.040;2023-08-17T11:13:41;8.32;;;2.08;;
27706;SDS011;36332;51.384;0.040;2023-08-17T11:16:11;13.80;;;1.98;;
27706;SDS011;36332;51.384;0.040;2023-08-17T11:18:46;9.45;;;2.80;;
27706;SDS011;36332;51.384;0.040;2023-08-17T11:21:16;8.82;;;2.42;;
27706;SDS011;36332;51.384;0.040;2023-08-17T11:23:46;17.65;;;2.45;;
27706;SDS011;36332;51.384;0.040;2023-08-17T11:26:18;11.27;;;2.22;;
27706;SDS011;36332;51.384;0.040;2023-08-17T11:28:46;11.45;;;2.92;;
27706;SDS011;36332;51.384;0.040;2023-08-17T11:31:14;7.80;;;1.90;;
27706;SDS011;36332;51.384;0.040;2023-08-17T11:33:45;15.80;;;2.15;;
27706;SDS011;36332;51.384;0.040;2023-08-17T11:36:14;8.65;;;1.80;;
27706;SDS011;36332;51.384;0.040;2023-08-17T11:38:42;11.00;;;2.72;;
27706;SDS011;36332;51.384;0.040;2023-08-17T11:41:11;7.30;;;1.88;;
27706;SDS011;36332;51.384;0.040;2023-08-17T11:43:42;13.52;;;2.22;;
27706;SDS011;36332;51.384;0.040;2023-08-17T11:46:10;6.85;;;2.03;;
27706;SDS011;36332;51.384;0.040;2023-08-17T11:48:41;8.68;;;2.40;;
27706;SDS011;36332;51.384;0.040;2023-08-17T11:51:09;11.77;;;1.98;;
27706;SDS011;36332;51.384;0.040;2023-08-17T11:53:39;8.13;;;1.80;;
27706;SDS011;36332;51.384;0.040;2023-08-17T11:56:10;9.95;;;2.72;;
27706;SDS011;36332;51.384;0.040;2023-08-17T11:58:41;9.50;;;2.55;;
27706;SDS011;36332;51.384;0.040;2023-08-17T12:01:11;6.57;;;1.85;;
27706;SDS011;36332;51.384;0.040;2023-08-17T12:03:41;13.75;;;2.65;;
27706;SDS011;36332;51.384;0.040;2023-08-17T12:06:09;9.93;;;2.30;;
27706;SDS011;36332;51.384;0.040;2023-08-17T12:08:44;7.72;;;1.90;;
27706;SDS011;36332;51.384;0.040;2023-08-17T12:11:17;8.95;;;1.98;;
27706;SDS011;36332;51.384;0.040;2023-08-17T12:13:49;9.55;;;2.30;;
27706;SDS011;36332;51.384;0.040;2023-08-17T12:16:18;8.77;;;1.65;;
27706;SDS011;36332;51.384;0.040;2023-08-17T12:18:47;8.43;;;1.95;;
27706;SDS011;36332;51.384;0.040;2023-08-17T12:21:21;6.70;;;1.75;;
27706;SDS011;36332;51.384;0.040;2023-08-17T12:23:53;11.50;;;2.28;;
27706;SDS011;36332;51.384;0.040;2023-08-17T12:26:21;6.72;;;1.67;;
27706;SDS011;36332;51.384;0.040;2023-08-17T12:28:49;6.15;;;2.53;;
27706;SDS011;36332;51.384;0.040;2023-08-17T12:31:21;15.02;;;2.42;;
27706;SDS011;36332;51.384;0.040;2023-08-17T12:33:51;16.77;;;2.67;;
27706;SDS011;36332;51.384;0.040;2023-08-17T12:36:19;9.68;;;2.20;;
27706;SDS011;36332;51.384;0.040;2023-08-17T12:38:48;16.40;;;2.13;;
27706;SDS011;36332;51.384;0.040;2023-08-17T12:41:16;5.38;;;1.60;;
27706;SDS011;36332;51.384;0.040;2023-08-17T12:43:44;7.70;;;2.33;;
27706;SDS011;36332;51.384;0.040;2023-08-17T12:46:12;9.27;;;2.25;;
27706;SDS011;36332;51.384;0.040;2023-08-17T12:48:40;10.43;;;2.25;;
27706;SDS011;36332;51.384;0.040;2023-08-17T12:51:08;9.57;;;2.22;;
27706;SDS011;36332;51.384;0.040;2023-08-17T12:53:36;7.63;;;2.20;;
27706;SDS011;36332;51.384;0.040;2023-08-17T12:56:04;7.00;;;2.15;;
27706;SDS011;36332;51.384;0.040;2023-08-17T12:58:32;7.13;;;1.70;;
27706;SDS011;36332;51.384;0.040;2023-08-17T13:01:00;10.55;;;1.77;;
27706;SDS011;36332;51.384;0.040;2023-08-17T13:03:28;12.63;;;2.08;;
27706;SDS011;36332;51.384;0.040;2023-08-17T13:05:56;6.30;;;1.70;;
27706;SDS011;36332;51.384;0.040;2023-08-17T13:08:24;8.88;;;2.13;;
27706;SDS011;36332;51.384;0.040;2023-08-17T13:10:51;8.15;;;2.00;;
27706;SDS011;36332;51.384;0.040;2023-08-17T13:13:20;7.25;;;1.85;;
27706;SDS011;36332;51.384;0.040;2023-08-17T13:15:50;6.65;;;1.88;;
27706;SDS011;36332;51.384;0.040;2023-08-17T13:18:21;4.82;;;1.52;;
27706;SDS011;36332;51.384;0.040;2023-08-17T13:20:48;5.40;;;1.60;;
27706;SDS011;36332;51.384;0.040;2023-08-17T13:23:16;11.10;;;1.65;;
27706;SDS011;36332;51.384;0.040;2023-08-17T13:25:44;6.00;;;1.60;;
27706;SDS011;36332;51.384;0.040;2023-08-17T13:28:12;7.72;;;2.25;;
27706;SDS011;36332;51.384;0.040;2023-08-17T13:30:39;13.10;;;2.40;;
27706;SDS011;36332;51.384;0.040;2023-08-17T13:33:07;8.48;;;1.77;;
27706;SDS011;36332;51.384;0.040;2023-08-17T13:35:35;11.52;;;1.83;;
27706;SDS011;36332;51.384;0.040;2023-08-17T13:38:03;4.75;;;1.70;;
27706;SDS011;36332;51.384;0.040;2023-08-17T13:40:31;7.43;;;2.60;;
27706;SDS011;36332;51.384;0.040;2023-08-17T13:43:00;4.90;;;1.70;;
27706;SDS011;36332;51.384;0.040;2023-08-17T13:45:28;10.45;;;1.67;;
27706;SDS011;36332;51.384;0.040;2023-08-17T13:47:56;12.50;;;1.90;;
27706;SDS011;36332;51.384;0.040;2023-08-17T13:50:24;4.75;;;1.48;;
27706;SDS011;36332;51.384;0.040;2023-08-17T13:52:51;3.65;;;1.60;;
27706;SDS011;36332;51.384;0.040;2023-08-17T13:55:19;7.30;;;1.38;;
27706;SDS011;36332;51.384;0.040;2023-08-17T13:57:46;6.32;;;1.63;;
27706;SDS011;36332;51.384;0.040;2023-08-17T14:00:14;8.35;;;1.27;;
27706;SDS011;36332;51.384;0.040;2023-08-17T14:02:42;8.82;;;1.98;;
27706;SDS011;36332;51.384;0.040;2023-08-17T14:05:10;5.93;;;1.65;;
27706;SDS011;36332;51.384;0.040;2023-08-17T14:07:37;7.85;;;2.25;;
27706;SDS011;36332;51.384;0.040;2023-08-17T14:10:08;6.68;;;1.65;;
27706;SDS011;36332;51.384;0.040;2023-08-17T14:12:50;6.47;;;1.55;;
27706;SDS011;36332;51.384;0.040;2023-08-17T14:15:18;9.77;;;1.77;;
27706;SDS011;36332;51.384;0.040;2023-08-17T14:17:46;4.68;;;1.40;;
27706;SDS011;36332;51.384;0.040;2023-08-17T14:20:14;12.02;;;1.42;;
27706;SDS011;36332;51.384;0.040;2023-08-17T14:22:42;7.47;;;1.60;;
27706;SDS011;36332;51.384;0.040;2023-08-17T14:25:10;3.50;;;1.60;;
27706;SDS011;36332;51.384;0.040;2023-08-17T14:27:38;10.45;;;2.10;;
27706;SDS011;36332;51.384;0.040;2023-08-17T14:30:05;6.95;;;1.10;;
27706;SDS011;36332;51.384;0.040;2023-08-17T14:32:33;6.68;;;1.95;;
27706;SDS011;36332;51.384;0.040;2023-08-17T14:35:01;4.88;;;1.70;;
27706;SDS011;36332;51.384;0.040;2023-08-17T14:37:29;4.47;;;1.30;;
27706;SDS011;36332;51.384;0.040;2023-08-17T14:39:58;3.20;;;1.20;;
27706;SDS011;36332;51.384;0.040;2023-08-17T14:42:25;7.80;;;1.92;;
27706;SDS011;36332;51.384;0.040;2023-08-17T14:44:54;7.10;;;1.45;;
27706;SDS011;36332;51.384;0.040;2023-08-17T14:47:21;4.57;;;1.70;;
27706;SDS011;36332;51.384;0.040;2023-08-17T14:49:49;3.40;;;1.20;;
27706;SDS011;36332;51.384;0.040;2023-08-17T14:52:17;11.95;;;1.92;;
27706;SDS011;36332;51.384;0.040;2023-08-17T14:54:45;9.90;;;2.28;;
27706;SDS011;36332;51.384;0.040;2023-08-17T14:57:12;5.53;;;1.42;;